Time;durP1;ratioP1;P1;durP2;ratioP2;P2;SDS_P1;SDS_P2;PMS_P1;PMS_P2;Temp;Humidity;BMP_temperature;BMP_pressure;BME280_temperature;BME280_humidity;BME280_pressure;Samples;Min_cycle;Max_cycle;Signal;HPM_P1;HPM_P2
2023/01/11 00:00:19;;;;;;;;;;;7.70;94.70;;;;;;5022470;28;19939;-79
2023/01/11 00:02:47;;;;;;;;;;;7.70;94.70;;;;;;5021789;28;19929;-79
2023/01/11 00:05:14;;;;;;;;;;;7.70;94.70;;;;;;5024772;28;19975;-79
2023/01/11 00:07:41;;;;;;;;;;;7.70;94.80;;;;;;5023770;28;19925;-79
2023/01/11 00:10:08;;;;;;;;;;;7.70;94.80;;;;;;5019272;28;19929;-79
2023/01/11 00:12:34;;;;;;;;;;;7.70;94.80;;;;;;5024491;28;19929;-79
2023/01/11 00:15:01;;;;;;;;;;;7.70;94.90;;;;;;5021287;28;19975;-79
2023/01/11 00:17:28;;;;;;;;;;;7.70;94.90;;;;;;5017848;28;19983;-79
2023/01/11 00:19:56;;;;;;;;;;;7.70;95.00;;;;;;5021945;28;19936;-79
2023/01/11 00:22:22;;;;;;;;;;;7.60;95.00;;;;;;5021427;28;19933;-79
2023/01/11 00:24:49;;;;;;;;;;;7.60;95.00;;;;;;5019099;28;19933;-78
2023/01/11 00:27:15;;;;;;;;;;;7.60;95.00;;;;;;5022487;28;19929;-79
2023/01/11 00:29:42;;;;;;;;;;;7.60;95.10;;;;;;5023462;28;19929;-79
2023/01/11 00:32:08;;;;;;;;;;;7.70;95.20;;;;;;5022682;28;20342;-79
2023/01/11 00:34:35;;;;;;;;;;;7.60;95.20;;;;;;5023910;28;20512;-79
2023/01/11 00:37:03;;;;;;;;;;;7.60;95.20;;;;;;5028477;28;19982;-79
2023/01/11 00:39:29;;;;;;;;;;;7.60;95.20;;;;;;5025469;28;19937;-79
2023/01/11 00:50:09;;;;;;;;;;;7.60;95.30;;;;;;5025066;28;19987;-79
2023/01/11 00:52:36;;;;;;;;;;;7.50;95.40;;;;;;5028596;28;19936;-79
2023/01/11 00:55:03;;;;;;;;;;;7.50;95.40;;;;;;5027482;28;19941;-79
2023/01/11 00:57:30;;;;;;;;;;;7.60;95.40;;;;;;5023004;28;19992;-80
2023/01/11 00:59:56;;;;;;;;;;;7.60;95.40;;;;;;5021239;28;19935;-80
2023/01/11 01:02:23;;;;;;;;;;;7.50;95.50;;;;;;5030169;28;20359;-79
2023/01/11 01:04:49;;;;;;;;;;;7.50;95.50;;;;;;5029701;28;19929;-79
2023/01/11 01:07:16;;;;;;;;;;;7.50;95.50;;;;;;5025015;28;19937;-79
2023/01/11 01:09:44;;;;;;;;;;;7.50;95.50;;;;;;5021512;28;19945;-80
2023/01/11 01:14:24;;;;;;;;;;;7.50;95.60;;;;;;5026875;28;19941;-79
2023/01/11 01:14:56;;;;;;;;;;;7.50;95.60;;;;;;5027814;28;20391;-79
2023/01/11 01:17:22;;;;;;;;;;;7.50;95.60;;;;;;5023787;28;19982;-79
2023/01/11 01:19:49;;;;;;;;;;;7.50;95.60;;;;;;5033332;28;19933;-79
2023/01/11 01:22:15;;;;;;;;;;;7.50;95.70;;;;;;5030738;28;20421;-80
2023/01/11 01:24:43;;;;;;;;;;;7.50;95.70;;;;;;5025735;28;19933;-79
2023/01/11 01:27:14;;;;;;;;;;;7.50;95.70;;;;;;5031808;28;19929;-80
2023/01/11 01:29:41;;;;;;;;;;;7.50;95.70;;;;;;5031667;28;19937;-80
2023/01/11 01:32:07;;;;;;;;;;;7.50;95.70;;;;;;5025331;28;19940;-78
2023/01/11 01:34:36;;;;;;;;;;;7.50;95.80;;;;;;5030328;28;19940;-80
2023/01/11 01:37:02;;;;;;;;;;;7.50;95.80;;;;;;5032674;28;19969;-80
2023/01/11 01:39:29;;;;;;;;;;;7.50;95.80;;;;;;5030491;28;19929;-80
2023/01/11 01:41:57;;;;;;;;;;;7.50;95.80;;;;;;5023214;28;19933;-79
2023/01/11 01:44:43;;;;;;;;;;;7.40;95.80;;;;;;5025869;28;19933;-80
2023/01/11 01:47:09;;;;;;;;;;;7.50;95.90;;;;;;5020265;28;19930;-80
2023/01/11 01:49:36;;;;;;;;;;;7.40;95.80;;;;;;5032650;28;19957;-81
2023/01/11 01:52:03;;;;;;;;;;;7.40;95.90;;;;;;5029285;28;19936;-80
2023/01/11 01:54:31;;;;;;;;;;;7.50;95.90;;;;;;5030019;28;19930;-80
2023/01/11 01:57:01;;;;;;;;;;;7.40;95.90;;;;;;5018013;28;19929;-79
2023/01/11 01:59:29;;;;;;;;;;;7.40;95.90;;;;;;5016695;28;19940;-79
2023/01/11 02:01:56;;;;;;;;;;;7.40;95.90;;;;;;5020164;28;19929;-79
2023/01/11 02:04:25;;;;;;;;;;;7.40;95.90;;;;;;5023298;28;19933;-79
2023/01/11 02:06:53;;;;;;;;;;;7.40;95.90;;;;;;5025459;28;19936;-80
2023/01/11 02:09:24;;;;;;;;;;;7.40;96.00;;;;;;5021931;28;20386;-79
2023/01/11 02:11:51;;;;;;;;;;;7.40;96.00;;;;;;5022073;28;19929;-79
2023/01/11 02:14:19;;;;;;;;;;;7.40;96.00;;;;;;5022189;28;19944;-79
2023/01/11 02:16:46;;;;;;;;;;;7.40;96.00;;;;;;5021434;28;19932;-79
2023/01/11 02:19:19;;;;;;;;;;;7.40;96.00;;;;;;5023963;28;19983;-78
2023/01/11 02:21:51;;;;;;;;;;;7.40;96.00;;;;;;5017387;28;19968;-79
2023/01/11 02:24:28;;;;;;;;;;;7.40;96.00;;;;;;5025093;28;20379;-79
2023/01/11 02:27:05;;;;;;;;;;;7.40;96.00;;;;;;5022523;28;20396;-80
2023/01/11 02:29:38;;;;;;;;;;;7.40;96.10;;;;;;5020054;28;20438;-80
2023/01/11 02:32:10;;;;;;;;;;;7.40;96.20;;;;;;5024822;28;20499;-80
2023/01/11 02:34:41;;;;;;;;;;;7.40;96.20;;;;;;5022847;28;19929;-79
2023/01/11 02:37:15;;;;;;;;;;;7.40;96.30;;;;;;5024236;28;20407;-78
2023/01/11 02:39:44;;;;;;;;;;;7.40;96.40;;;;;;5019069;28;19948;-79
2023/01/11 02:45:04;;;;;;;;;;;7.40;96.70;;;;;;5024753;28;20538;-80
2023/01/11 02:47:38;;;;;;;;;;;7.50;96.90;;;;;;5026511;28;19929;-79
2023/01/11 02:50:09;;;;;;;;;;;7.50;96.90;;;;;;5030471;28;19964;-81
2023/01/11 02:52:39;;;;;;;;;;;7.50;97.00;;;;;;5025096;28;20114;-79
2023/01/11 02:55:07;;;;;;;;;;;7.50;97.10;;;;;;5032473;28;20362;-79
2023/01/11 02:57:34;;;;;;;;;;;7.50;97.20;;;;;;5028718;28;19933;-80
2023/01/11 03:00:02;;;;;;;;;;;7.50;97.20;;;;;;5032944;28;19975;-79
2023/01/11 03:02:29;;;;;;;;;;;7.50;97.20;;;;;;5024785;28;19936;-79
2023/01/11 03:04:55;;;;;;;;;;;7.60;97.20;;;;;;5029011;28;19948;-80
2023/01/11 03:07:29;;;;;;;;;;;7.50;97.30;;;;;;5021597;28;19932;-80
2023/01/11 03:10:02;;;;;;;;;;;7.60;97.40;;;;;;5031830;28;20020;-80
2023/01/11 03:12:53;;;;;;;;;;;7.60;97.50;;;;;;5026890;28;19933;-79
2023/01/11 03:15:34;;;;;;;;;;;7.50;97.50;;;;;;5021500;28;20318;-79
2023/01/11 03:18:06;;;;;;;;;;;7.60;97.60;;;;;;5020586;28;20024;-79
2023/01/11 03:20:35;;;;;;;;;;;7.60;97.70;;;;;;5025386;28;19932;-79
2023/01/11 03:23:10;;;;;;;;;;;7.60;97.80;;;;;;5023684;28;19956;-80
2023/01/11 03:25:40;;;;;;;;;;;7.60;98.00;;;;;;5020438;28;19984;-80
2023/01/11 03:28:10;;;;;;;;;;;7.60;98.10;;;;;;5025220;28;19937;-80
2023/01/11 03:30:40;;;;;;;;;;;7.70;98.20;;;;;;5025293;28;19929;-80
2023/01/11 03:33:10;;;;;;;;;;;7.70;98.30;;;;;;5024421;28;19929;-79
2023/01/11 03:35:39;;;;;;;;;;;7.60;98.30;;;;;;5025726;28;19936;-79
2023/01/11 03:38:08;;;;;;;;;;;7.70;98.30;;;;;;5030910;28;19936;-79
2023/01/11 03:40:38;;;;;;;;;;;7.60;98.30;;;;;;5028452;28;19959;-79
2023/01/11 03:43:12;;;;;;;;;;;7.70;98.30;;;;;;5022864;28;19972;-79
2023/01/11 03:45:41;;;;;;;;;;;7.70;98.30;;;;;;5023958;28;19929;-79
2023/01/11 03:48:11;;;;;;;;;;;7.70;98.20;;;;;;5025055;28;19929;-80
2023/01/11 03:50:37;;;;;;;;;;;7.70;98.30;;;;;;5024136;28;20342;-79
2023/01/11 03:53:05;;;;;;;;;;;7.70;98.40;;;;;;5027654;28;19960;-81
2023/01/11 03:55:34;;;;;;;;;;;7.70;98.40;;;;;;5028976;28;19976;-79
2023/01/11 03:58:01;;;;;;;;;;;7.80;98.50;;;;;;5022638;28;19929;-79
2023/01/11 04:00:28;;;;;;;;;;;7.80;98.50;;;;;;5026050;28;19929;-80
2023/01/11 04:02:54;;;;;;;;;;;7.80;98.40;;;;;;5028564;28;19932;-79
2023/01/11 04:05:23;;;;;;;;;;;7.70;98.40;;;;;;5024233;28;19929;-79
2023/01/11 04:07:49;;;;;;;;;;;7.80;98.50;;;;;;5019740;28;19929;-79
2023/01/11 04:10:16;;;;;;;;;;;7.80;98.50;;;;;;5023677;28;19951;-79
2023/01/11 04:12:45;;;;;;;;;;;7.80;98.50;;;;;;5027714;28;19975;-79
2023/01/11 04:15:12;;;;;;;;;;;7.80;98.50;;;;;;5028290;28;19936;-80
2023/01/11 04:17:38;;;;;;;;;;;7.80;98.50;;;;;;5016739;28;20427;-79
2023/01/11 04:20:05;;;;;;;;;;;7.80;98.40;;;;;;5026599;28;19928;-79
2023/01/11 04:22:33;;;;;;;;;;;7.80;98.40;;;;;;5028493;28;20368;-80
2023/01/11 04:25:00;;;;;;;;;;;7.80;98.30;;;;;;5030352;28;19952;-80
2023/01/11 04:27:26;;;;;;;;;;;7.80;98.30;;;;;;5023794;28;19928;-79
2023/01/11 04:29:53;;;;;;;;;;;7.80;98.20;;;;;;5024130;28;19940;-79
2023/01/11 04:32:19;;;;;;;;;;;7.80;98.20;;;;;;5027479;28;19933;-79
2023/01/11 04:34:46;;;;;;;;;;;7.90;98.20;;;;;;5025046;28;19979;-79
2023/01/11 04:37:12;;;;;;;;;;;7.80;98.10;;;;;;5025662;28;19952;-78
2023/01/11 04:39:40;;;;;;;;;;;7.80;98.00;;;;;;5028262;28;19929;-79
2023/01/11 04:42:19;;;;;;;;;;;7.80;98.00;;;;;;5024222;28;19959;-79
2023/01/11 04:44:46;;;;;;;;;;;7.80;98.00;;;;;;5026573;28;19956;-79
2023/01/11 04:47:13;;;;;;;;;;;7.80;98.00;;;;;;5024807;28;20024;-79
2023/01/11 04:49:39;;;;;;;;;;;7.90;98.00;;;;;;5027972;28;19929;-79
2023/01/11 04:52:06;;;;;;;;;;;7.80;98.00;;;;;;5023634;28;19933;-79
2023/01/11 04:54:33;;;;;;;;;;;7.90;98.00;;;;;;5023203;28;19945;-79
2023/01/11 04:57:00;;;;;;;;;;;7.80;98.00;;;;;;5025632;28;20313;-80
2023/01/11 04:59:27;;;;;;;;;;;7.80;98.00;;;;;;5023859;28;20450;-79
2023/01/11 05:01:54;;;;;;;;;;;7.90;98.00;;;;;;5021880;28;19929;-79
2023/01/11 05:04:20;;;;;;;;;;;7.90;98.10;;;;;;5022453;28;19936;-79
2023/01/11 05:06:47;;;;;;;;;;;7.90;98.20;;;;;;5029684;28;19979;-80
2023/01/11 05:09:14;;;;;;;;;;;7.90;98.20;;;;;;5026141;28;19936;-79
2023/01/11 05:11:41;;;;;;;;;;;7.90;98.20;;;;;;5026597;28;19925;-79
2023/01/11 05:14:09;;;;;;;;;;;7.90;98.20;;;;;;5025135;28;19929;-80
2023/01/11 05:16:35;;;;;;;;;;;7.90;98.30;;;;;;5025672;28;19941;-80
2023/01/11 05:19:03;;;;;;;;;;;7.90;98.30;;;;;;5024445;28;19929;-80
2023/01/11 05:21:31;;;;;;;;;;;7.90;98.40;;;;;;5023726;28;19936;-79
2023/01/11 05:23:58;;;;;;;;;;;7.90;98.50;;;;;;5027742;28;19964;-79
2023/01/11 05:26:26;;;;;;;;;;;7.90;98.60;;;;;;5024416;28;19933;-79
2023/01/11 05:28:54;;;;;;;;;;;8.00;98.80;;;;;;5027079;28;20016;-79
2023/01/11 05:31:22;;;;;;;;;;;8.00;98.90;;;;;;5025588;28;19933;-79
2023/01/11 05:33:49;;;;;;;;;;;8.00;99.00;;;;;;5023907;28;19940;-79
2023/01/11 05:36:16;;;;;;;;;;;8.00;99.00;;;;;;5030427;28;19956;-80
2023/01/11 05:38:44;;;;;;;;;;;8.00;99.10;;;;;;5027704;28;19979;-79
2023/01/11 05:41:13;;;;;;;;;;;8.00;99.10;;;;;;5023219;28;21279;-78
2023/01/11 05:46:21;;;;;;;;;;;8.10;99.20;;;;;;5014330;28;20034;-81
2023/01/11 05:48:48;;;;;;;;;;;8.10;99.20;;;;;;5023248;28;19929;-79
2023/01/11 05:51:15;;;;;;;;;;;8.10;99.20;;;;;;5026217;28;20311;-79
2023/01/11 05:53:41;;;;;;;;;;;8.10;99.20;;;;;;5028430;28;19929;-79
2023/01/11 05:56:08;;;;;;;;;;;8.10;99.20;;;;;;5021405;28;19929;-80
2023/01/11 05:58:34;;;;;;;;;;;8.10;99.20;;;;;;5024673;28;19930;-80
2023/01/11 06:01:01;;;;;;;;;;;8.10;99.20;;;;;;5025592;28;19936;-79
2023/01/11 06:03:29;;;;;;;;;;;8.20;99.30;;;;;;5026043;28;19932;-80
2023/01/11 06:05:55;;;;;;;;;;;8.20;99.20;;;;;;5025444;28;19925;-79
2023/01/11 06:08:22;;;;;;;;;;;8.20;99.20;;;;;;5020841;28;19952;-80
2023/01/11 06:10:50;;;;;;;;;;;8.20;99.10;;;;;;5022476;28;19940;-80
2023/01/11 06:13:26;;;;;;;;;;;8.20;99.20;;;;;;5022194;28;19940;-80
2023/01/11 06:15:52;;;;;;;;;;;8.20;99.20;;;;;;5031174;28;19929;-79
2023/01/11 06:18:19;;;;;;;;;;;8.20;99.20;;;;;;5019934;28;19929;-81
2023/01/11 06:20:49;;;;;;;;;;;8.20;99.20;;;;;;5018751;28;19987;-80
2023/01/11 06:23:16;;;;;;;;;;;8.20;99.30;;;;;;5020581;28;19972;-79
2023/01/11 06:25:42;;;;;;;;;;;8.20;99.20;;;;;;5022805;28;19925;-78
2023/01/11 06:28:09;;;;;;;;;;;8.20;99.20;;;;;;5021391;28;19936;-80
2023/01/11 06:30:35;;;;;;;;;;;8.30;99.20;;;;;;5027738;28;19933;-78
2023/01/11 06:33:04;;;;;;;;;;;8.30;99.20;;;;;;5027738;28;19929;-80
2023/01/11 06:35:31;;;;;;;;;;;8.30;99.20;;;;;;5025690;28;20012;-82
2023/01/11 06:37:59;;;;;;;;;;;8.30;99.10;;;;;;5022688;28;19940;-80
2023/01/11 06:40:25;;;;;;;;;;;8.30;99.10;;;;;;5021361;28;19929;-79
2023/01/11 06:42:52;;;;;;;;;;;8.30;99.10;;;;;;5025385;28;19929;-80
2023/01/11 06:45:18;;;;;;;;;;;8.30;99.10;;;;;;5021910;28;19937;-81
2023/01/11 06:47:45;;;;;;;;;;;8.30;99.10;;;;;;5014223;28;20885;-81
2023/01/11 06:50:11;;;;;;;;;;;8.30;99.10;;;;;;5026487;28;20353;-80
2023/01/11 06:52:38;;;;;;;;;;;8.30;99.10;;;;;;5026564;28;19936;-80
2023/01/11 06:55:06;;;;;;;;;;;8.40;99.10;;;;;;5022091;28;19975;-80
2023/01/11 06:57:33;;;;;;;;;;;8.40;99.10;;;;;;5021283;28;20330;-80
2023/01/11 07:00:00;;;;;;;;;;;8.40;99.10;;;;;;5020976;28;20029;-80
2023/01/11 07:02:26;;;;;;;;;;;8.40;99.00;;;;;;5017134;28;19936;-80
2023/01/11 07:04:53;;;;;;;;;;;8.40;99.10;;;;;;5020935;28;20362;-79
2023/01/11 07:07:19;;;;;;;;;;;8.40;99.00;;;;;;5021666;28;19936;-79
2023/01/11 07:09:46;;;;;;;;;;;8.40;99.00;;;;;;5025637;28;19936;-80
2023/01/11 07:12:13;;;;;;;;;;;8.50;99.10;;;;;;5021613;28;20406;-78
2023/01/11 07:14:40;;;;;;;;;;;8.40;99.00;;;;;;5019704;28;19929;-80
2023/01/11 07:17:07;;;;;;;;;;;8.50;99.00;;;;;;5020412;28;19988;-80
2023/01/11 07:19:33;;;;;;;;;;;8.50;99.00;;;;;;5020246;28;19936;-80
2023/01/11 07:22:00;;;;;;;;;;;8.50;99.00;;;;;;5023585;28;19929;-81
2023/01/11 07:24:27;;;;;;;;;;;8.50;99.00;;;;;;5022530;28;19946;-81
2023/01/11 07:26:55;;;;;;;;;;;8.50;99.30;;;;;;5022009;28;19929;-80
2023/01/11 07:29:23;;;;;;;;;;;8.50;98.90;;;;;;5021711;28;20486;-80
2023/01/11 07:31:49;;;;;;;;;;;8.50;98.90;;;;;;5019104;28;19935;-79
2023/01/11 07:34:16;;;;;;;;;;;8.50;98.90;;;;;;5024940;28;19929;-81
2023/01/11 07:36:42;;;;;;;;;;;8.50;98.80;;;;;;5027131;28;19937;-80
2023/01/11 07:39:09;;;;;;;;;;;8.60;98.80;;;;;;5023566;28;19948;-80
2023/01/11 07:44:20;;;;;;;;;;;8.60;99.10;;;;;;5025572;28;20781;-80
2023/01/11 07:46:47;;;;;;;;;;;8.60;98.80;;;;;;5025265;28;19929;-80
2023/01/11 07:49:14;;;;;;;;;;;8.60;98.70;;;;;;5027766;28;19936;-79
2023/01/11 07:51:41;;;;;;;;;;;8.60;98.70;;;;;;5023011;28;19936;-80
2023/01/11 07:54:07;;;;;;;;;;;8.60;98.70;;;;;;5025279;28;19929;-79
2023/01/11 07:56:34;;;;;;;;;;;8.60;98.70;;;;;;5024593;28;19940;-80
2023/01/11 07:59:00;;;;;;;;;;;8.60;98.70;;;;;;5024856;28;19936;-80
2023/01/11 08:01:27;;;;;;;;;;;8.60;98.70;;;;;;5016294;28;20453;-80
2023/01/11 08:03:55;;;;;;;;;;;8.60;98.70;;;;;;5019214;28;19935;-80
2023/01/11 08:06:21;;;;;;;;;;;8.70;98.70;;;;;;5026174;28;19959;-80
2023/01/11 08:08:48;;;;;;;;;;;8.70;98.70;;;;;;5028165;28;19933;-80
2023/01/11 08:16:43;;;;;;;;;;;8.70;98.70;;;;;;5019932;28;19932;-80
2023/01/11 08:19:11;;;;;;;;;;;8.70;98.60;;;;;;5023617;28;19952;-80
2023/01/11 08:21:37;;;;;;;;;;;8.70;98.60;;;;;;5026749;28;19929;-80
2023/01/11 08:24:04;;;;;;;;;;;8.70;98.60;;;;;;5024601;28;19929;-80
2023/01/11 08:26:30;;;;;;;;;;;8.80;98.60;;;;;;5020240;28;20452;-80
2023/01/11 08:28:57;;;;;;;;;;;8.70;98.60;;;;;;5021669;28;20411;-80
2023/01/11 08:31:25;;;;;;;;;;;8.80;98.60;;;;;;5023741;28;20405;-81
2023/01/11 08:33:51;;;;;;;;;;;8.80;98.60;;;;;;5020927;28;20081;-81
2023/01/11 08:36:19;;;;;;;;;;;8.80;98.90;;;;;;5022446;28;19929;-80
2023/01/11 08:38:46;;;;;;;;;;;8.80;98.60;;;;;;5029852;28;19948;-80
2023/01/11 08:41:13;;;;;;;;;;;8.80;98.60;;;;;;5024846;28;20430;-81
2023/01/11 08:43:40;;;;;;;;;;;8.80;98.60;;;;;;5027780;28;20044;-80
2023/01/11 08:46:07;;;;;;;;;;;8.80;98.60;;;;;;5026788;28;19933;-80
2023/01/11 08:48:33;;;;;;;;;;;8.80;98.50;;;;;;5023176;28;19956;-80
2023/01/11 08:51:00;;;;;;;;;;;8.80;98.50;;;;;;5021675;28;19929;-81
2023/01/11 08:53:28;;;;;;;;;;;8.80;98.60;;;;;;5023097;28;19929;-80
2023/01/11 08:55:54;;;;;;;;;;;8.90;98.60;;;;;;5026099;28;19952;-80
2023/01/11 08:58:21;;;;;;;;;;;8.90;98.60;;;;;;5025237;28;19968;-80
2023/01/11 09:00:47;;;;;;;;;;;8.90;98.60;;;;;;5022320;28;19937;-80
2023/01/11 09:03:14;;;;;;;;;;;8.90;98.70;;;;;;5021813;28;19929;-81
2023/01/11 09:05:41;;;;;;;;;;;8.90;98.70;;;;;;5026407;28;19929;-80
2023/01/11 09:08:08;;;;;;;;;;;8.90;98.70;;;;;;5020291;28;19930;-80
2023/01/11 09:10:36;;;;;;;;;;;9.00;98.80;;;;;;5020257;28;19935;-84
2023/01/11 09:13:03;;;;;;;;;;;9.00;99.30;;;;;;5026719;28;19936;-83
2023/01/11 09:15:30;;;;;;;;;;;9.10;99.60;;;;;;5029317;28;19940;-82
2023/01/11 09:17:56;;;;;;;;;;;9.10;99.30;;;;;;5025911;28;19975;-82
2023/01/11 09:20:23;;;;;;;;;;;9.10;99.10;;;;;;5027110;28;19932;-83
2023/01/11 09:22:50;;;;;;;;;;;9.10;99.00;;;;;;5018535;28;21675;-82
2023/01/11 09:25:17;;;;;;;;;;;9.10;99.00;;;;;;5022408;28;19940;-82
2023/01/11 09:27:45;;;;;;;;;;;9.10;99.10;;;;;;5019218;28;19945;-82
2023/01/11 09:30:13;;;;;;;;;;;9.10;99.10;;;;;;5024854;28;19929;-83
2023/01/11 09:32:39;;;;;;;;;;;9.10;99.30;;;;;;5025472;28;19933;-83
2023/01/11 09:35:07;;;;;;;;;;;9.10;99.30;;;;;;5023551;28;19937;-83
2023/01/11 09:37:35;;;;;;;;;;;9.10;99.40;;;;;;5021146;28;19929;-83
2023/01/11 09:40:02;;;;;;;;;;;9.10;99.50;;;;;;5023086;28;20023;-82
2023/01/11 09:42:34;;;;;;;;;;;9.10;99.70;;;;;;5025067;28;19963;-82
2023/01/11 09:45:05;;;;;;;;;;;9.10;99.80;;;;;;5025317;28;19925;-82
2023/01/11 09:47:35;;;;;;;;;;;9.10;99.90;;;;;;5021161;28;19973;-83
2023/01/11 09:50:05;;;;;;;;;;;9.10;99.90;;;;;;5017615;28;19979;-83
2023/01/11 09:52:37;;;;;;;;;;;9.10;99.90;;;;;;5024588;28;19936;-83
2023/01/11 09:55:04;;;;;;;;;;;9.10;99.90;;;;;;5021834;28;20462;-83
2023/01/11 09:57:46;;;;;;;;;;;9.20;99.90;;;;;;5019083;28;20442;-83
2023/01/11 10:00:21;;;;;;;;;;;9.20;99.90;;;;;;5015829;28;20524;-83
2023/01/11 10:02:58;;;;;;;;;;;9.20;99.90;;;;;;5026988;28;19936;-84
2023/01/11 10:05:40;;;;;;;;;;;9.20;99.90;;;;;;5024732;28;19935;-83
2023/01/11 10:08:28;;;;;;;;;;;9.20;99.90;;;;;;5008266;28;20425;-83
2023/01/11 10:11:00;;;;;;;;;;;9.20;99.90;;;;;;5022758;28;19936;-84
2023/01/11 10:13:30;;;;;;;;;;;9.20;99.90;;;;;;5019325;28;19933;-83
2023/01/11 10:16:06;;;;;;;;;;;9.20;99.90;;;;;;5022307;28;19933;-83
2023/01/11 10:18:40;;;;;;;;;;;9.20;99.90;;;;;;5019085;28;19987;-83
2023/01/11 10:21:12;;;;;;;;;;;9.20;99.90;;;;;;5023366;28;19952;-83
2023/01/11 10:23:45;;;;;;;;;;;9.20;99.90;;;;;;5021577;28;19933;-82
2023/01/11 10:26:22;;;;;;;;;;;9.20;99.90;;;;;;5021175;28;19945;-82
2023/01/11 10:29:02;;;;;;;;;;;9.20;99.90;;;;;;5020286;28;19929;-80
2023/01/11 10:31:46;;;;;;;;;;;9.30;99.90;;;;;;5015348;28;19936;-82
2023/01/11 10:34:37;;;;;;;;;;;9.30;99.90;;;;;;5020004;28;19933;-83
2023/01/11 10:37:22;;;;;;;;;;;9.20;99.90;;;;;;5020861;28;20350;-83
2023/01/11 10:40:13;;;;;;;;;;;9.30;99.90;;;;;;5024866;28;19960;-81
2023/01/11 10:42:43;;;;;;;;;;;9.30;99.90;;;;;;5023338;28;20406;-80
2023/01/11 10:45:14;;;;;;;;;;;9.20;99.90;;;;;;5023250;28;19929;-81
2023/01/11 10:47:44;;;;;;;;;;;9.30;99.90;;;;;;5023342;28;20001;-80
2023/01/11 10:50:16;;;;;;;;;;;9.30;99.90;;;;;;5029701;28;19940;-81
2023/01/11 10:52:46;;;;;;;;;;;9.30;99.90;;;;;;5024360;28;19930;-82
2023/01/11 10:55:14;;;;;;;;;;;9.30;99.90;;;;;;5031289;28;19929;-85
2023/01/11 10:57:46;;;;;;;;;;;9.40;99.90;;;;;;5027342;28;19933;-84
2023/01/11 11:00:18;;;;;;;;;;;9.50;99.90;;;;;;5028434;28;19933;-85
2023/01/11 11:02:56;;;;;;;;;;;9.50;99.90;;;;;;5022382;28;19937;-85
2023/01/11 11:05:27;;;;;;;;;;;9.60;99.90;;;;;;5019625;28;19937;-85
2023/01/11 11:07:56;;;;;;;;;;;9.70;99.90;;;;;;5022537;28;20596;-84
2023/01/11 11:10:25;;;;;;;;;;;9.70;99.90;;;;;;5022086;28;19944;-85
2023/01/11 11:12:54;;;;;;;;;;;9.70;99.90;;;;;;5024737;28;19929;-85
2023/01/11 11:15:24;;;;;;;;;;;9.70;99.90;;;;;;5024672;28;19963;-86
2023/01/11 11:17:52;;;;;;;;;;;9.80;99.90;;;;;;5023028;28;19929;-83
2023/01/11 11:20:20;;;;;;;;;;;9.80;99.90;;;;;;5023618;28;19933;-85
2023/01/11 11:22:48;;;;;;;;;;;9.80;99.90;;;;;;5024631;28;19944;-84
2023/01/11 11:25:17;;;;;;;;;;;9.80;99.90;;;;;;5024439;28;19932;-85
2023/01/11 11:27:45;;;;;;;;;;;9.80;99.90;;;;;;5023235;28;19975;-84
2023/01/11 11:30:13;;;;;;;;;;;9.90;99.90;;;;;;5022308;28;20458;-83
2023/01/11 11:32:41;;;;;;;;;;;9.90;99.90;;;;;;5022802;28;19933;-84
2023/01/11 11:35:28;;;;;;;;;;;9.90;99.90;;;;;;5025148;28;19936;-84
2023/01/11 11:37:55;;;;;;;;;;;9.90;99.90;;;;;;5021432;28;20338;-87
2023/01/11 11:40:27;;;;;;;;;;;9.90;99.90;;;;;;5020089;28;20141;-82
2023/01/11 11:43:08;;;;;;;;;;;9.90;99.90;;;;;;5024950;28;19933;-84
2023/01/11 11:45:35;;;;;;;;;;;9.90;99.90;;;;;;5021587;28;19933;-85
2023/01/11 11:48:02;;;;;;;;;;;9.90;99.90;;;;;;5024821;28;20001;-83
2023/01/11 11:50:30;;;;;;;;;;;9.90;99.90;;;;;;5025239;28;20310;-84
2023/01/11 11:53:01;;;;;;;;;;;9.90;99.90;;;;;;5028648;28;19984;-84
2023/01/11 11:55:29;;;;;;;;;;;10.00;99.90;;;;;;5024642;28;19937;-83
2023/01/11 11:57:56;;;;;;;;;;;10.00;99.90;;;;;;5026354;28;19983;-86
2023/01/11 12:00:25;;;;;;;;;;;9.90;99.90;;;;;;5027525;28;20371;-83
2023/01/11 12:02:54;;;;;;;;;;;10.00;99.90;;;;;;5025347;28;20548;-83
2023/01/11 12:05:21;;;;;;;;;;;10.00;99.90;;;;;;5025386;28;20010;-83
2023/01/11 12:07:50;;;;;;;;;;;10.00;99.90;;;;;;5027598;28;19929;-83
2023/01/11 12:10:18;;;;;;;;;;;10.00;99.90;;;;;;5025995;28;19963;-82
2023/01/11 12:12:49;;;;;;;;;;;10.00;99.90;;;;;;5023506;28;19951;-83
2023/01/11 12:15:21;;;;;;;;;;;10.00;99.90;;;;;;5028154;28;19939;-83
2023/01/11 12:17:48;;;;;;;;;;;10.00;99.90;;;;;;5021230;28;19929;-83
2023/01/11 12:20:32;;;;;;;;;;;10.00;99.90;;;;;;5023878;28;19983;-85
2023/01/11 12:23:11;;;;;;;;;;;10.00;99.90;;;;;;5026318;28;20442;-82
2023/01/11 12:25:41;;;;;;;;;;;10.00;99.90;;;;;;5021051;28;20509;-84
2023/01/11 12:28:11;;;;;;;;;;;10.00;99.90;;;;;;5021862;28;19940;-85
2023/01/11 12:30:44;;;;;;;;;;;10.00;99.90;;;;;;5022726;28;20040;-83
2023/01/11 12:33:20;;;;;;;;;;;10.00;99.90;;;;;;5022908;28;19972;-84
2023/01/11 12:35:49;;;;;;;;;;;10.00;99.90;;;;;;5020672;28;19960;-83
2023/01/11 12:38:21;;;;;;;;;;;10.00;99.90;;;;;;5023594;28;19938;-84
2023/01/11 12:40:54;;;;;;;;;;;10.00;99.90;;;;;;5024693;28;19968;-84
2023/01/11 12:43:26;;;;;;;;;;;10.00;99.90;;;;;;5023793;28;19933;-83
2023/01/11 12:45:58;;;;;;;;;;;10.00;99.90;;;;;;5022894;28;19929;-83
2023/01/11 12:48:31;;;;;;;;;;;10.00;99.90;;;;;;5020894;28;19935;-86
2023/01/11 12:51:04;;;;;;;;;;;10.00;99.90;;;;;;5020688;28;20325;-85
2023/01/11 12:53:39;;;;;;;;;;;10.00;99.90;;;;;;5021878;28;19927;-84
2023/01/11 12:56:16;;;;;;;;;;;10.00;99.90;;;;;;5022834;28;19940;-85
2023/01/11 12:58:45;;;;;;;;;;;10.00;99.90;;;;;;5021705;28;19936;-84
2023/01/11 13:01:23;;;;;;;;;;;10.00;99.90;;;;;;5020627;28;19940;-84
2023/01/11 13:03:58;;;;;;;;;;;10.00;99.90;;;;;;5020216;28;19929;-85
2023/01/11 13:06:29;;;;;;;;;;;10.00;99.90;;;;;;5022688;28;19936;-84
2023/01/11 13:09:00;;;;;;;;;;;10.00;99.90;;;;;;5026027;28;19983;-83
2023/01/11 13:11:37;;;;;;;;;;;10.00;99.90;;;;;;5019789;28;19932;-83
2023/01/11 13:14:14;;;;;;;;;;;10.00;99.90;;;;;;5019704;28;19927;-84
2023/01/11 13:16:45;;;;;;;;;;;10.00;99.90;;;;;;5019361;28;20366;-84
2023/01/11 13:19:14;;;;;;;;;;;10.00;99.90;;;;;;5025090;28;19929;-82
2023/01/11 13:21:43;;;;;;;;;;;10.00;99.90;;;;;;5023734;28;19932;-83
2023/01/11 13:24:14;;;;;;;;;;;10.00;99.90;;;;;;5022052;28;19925;-83
2023/01/11 13:26:42;;;;;;;;;;;10.00;99.90;;;;;;5020541;28;19929;-83
2023/01/11 13:29:12;;;;;;;;;;;10.00;99.90;;;;;;5021819;28;19991;-81
2023/01/11 13:31:40;;;;;;;;;;;10.00;99.90;;;;;;5008633;28;19951;-81
2023/01/11 13:34:11;;;;;;;;;;;10.00;99.90;;;;;;5017792;28;20405;-82
2023/01/11 13:36:40;;;;;;;;;;;10.00;99.90;;;;;;5015761;28;19929;-82
2023/01/11 13:39:11;;;;;;;;;;;10.00;99.90;;;;;;5014296;28;19936;-82
2023/01/11 13:41:41;;;;;;;;;;;10.00;99.90;;;;;;5012034;28;19937;-83
2023/01/11 13:44:13;;;;;;;;;;;9.90;99.90;;;;;;5016070;28;19933;-81
2023/01/11 13:46:48;;;;;;;;;;;10.00;99.90;;;;;;5010840;28;21780;-81
2023/01/11 13:49:21;;;;;;;;;;;9.90;99.90;;;;;;5014333;28;19933;-80
2023/01/11 13:51:50;;;;;;;;;;;10.00;99.90;;;;;;5019474;28;19929;-81
2023/01/11 13:54:19;;;;;;;;;;;10.00;99.90;;;;;;5018614;28;19929;-80
2023/01/11 13:56:50;;;;;;;;;;;10.00;99.90;;;;;;5014150;28;19928;-79
2023/01/11 13:59:20;;;;;;;;;;;10.00;99.90;;;;;;5016927;28;19930;-83
2023/01/11 14:01:49;;;;;;;;;;;10.00;99.90;;;;;;5011243;28;19979;-81
2023/01/11 14:04:20;;;;;;;;;;;10.00;99.90;;;;;;5017975;28;19929;-81
2023/01/11 14:07:00;;;;;;;;;;;9.90;99.90;;;;;;5018606;28;20346;-81
2023/01/11 14:09:37;;;;;;;;;;;10.00;99.90;;;;;;5019681;28;20498;-81
2023/01/11 14:12:08;;;;;;;;;;;10.00;99.90;;;;;;5017734;28;20414;-81
2023/01/11 14:14:40;;;;;;;;;;;10.00;99.90;;;;;;5016398;28;20359;-82
2023/01/11 14:17:17;;;;;;;;;;;10.00;99.90;;;;;;5013732;28;20743;-81
2023/01/11 14:19:48;;;;;;;;;;;9.90;99.90;;;;;;5018039;28;19941;-82
2023/01/11 14:22:21;;;;;;;;;;;9.90;99.90;;;;;;5017822;28;19933;-82
2023/01/11 14:24:52;;;;;;;;;;;10.00;99.90;;;;;;5018792;28;19929;-80
2023/01/11 14:27:27;;;;;;;;;;;10.00;99.90;;;;;;5019641;28;19929;-81
2023/01/11 14:29:59;;;;;;;;;;;10.00;99.90;;;;;;5015115;28;19929;-81
2023/01/11 14:32:34;;;;;;;;;;;10.00;99.90;;;;;;5005974;28;20679;-81
2023/01/11 14:35:21;;;;;;;;;;;10.00;99.90;;;;;;5015780;28;20461;-81
2023/01/11 14:38:06;;;;;;;;;;;10.00;99.90;;;;;;5014405;28;20391;-81
2023/01/11 14:40:52;;;;;;;;;;;10.00;99.90;;;;;;5014820;28;19929;-81
2023/01/11 14:43:46;;;;;;;;;;;10.00;99.90;;;;;;5014498;28;19933;-81
2023/01/11 14:46:27;;;;;;;;;;;10.00;99.90;;;;;;4990337;28;20403;-81
2023/01/11 14:48:58;;;;;;;;;;;10.00;99.90;;;;;;5014078;28;19933;-82
2023/01/11 14:51:28;;;;;;;;;;;10.00;99.90;;;;;;5010795;28;19937;-83
2023/01/11 14:53:57;;;;;;;;;;;10.00;99.90;;;;;;5010015;28;19991;-83
2023/01/11 14:56:42;;;;;;;;;;;10.00;99.90;;;;;;5015451;28;19987;-84
2023/01/11 14:59:22;;;;;;;;;;;10.00;99.90;;;;;;5015862;28;20013;-83
2023/01/11 15:02:22;;;;;;;;;;;9.90;99.90;;;;;;5013250;28;19940;-83
2023/01/11 15:05:04;;;;;;;;;;;10.00;99.90;;;;;;4955162;28;19931;-83